CheckWX is a tool to help pilots better visualize weather data.  It is not intended as a substitute for an official pre-flight weather briefing.

02:18:44 UTC

KDSM TAF
Des Moines International Airport
Des Moines, Iowa, USA
KDSM 222329Z 2300/2324 28014KT P6SM OVC012 FM230100 32014G26KT P6SM OVC012 FM231000 34010KT P6SM BKN025 FM231300 35010KT P6SM SCT040

Apr-23@
00:00 UTC

Apr-23 @ 00:00 UTC

Apr-23@
01:00 UTC

Apr-23 @ 01:00 UTC

KDSM 222329Z 2300/2324 28014KT P6SM OVC012

Expired

Wind
  • 280° at 14 KTS
Cloud Levels
  • Overcast at 1,200' AGL

Apr-23@
01:00 UTC

Apr-23 @ 01:00 UTC

Apr-23@
10:00 UTC

Apr-23 @ 10:00 UTC

FM230100 32014G26KT P6SM OVC012

From

From Standard forecast or significant change

Wind
  • 320° at 14 KTS
  • {Gusting to 26 KTS
Cloud Levels
  • Overcast at 1,200' AGL

Apr-23@
10:00 UTC

Apr-23 @ 10:00 UTC

Apr-23@
13:00 UTC

Apr-23 @ 13:00 UTC

FM231000 34010KT P6SM BKN025

From

From Standard forecast or significant change

Wind
  • 340° at 10 KTS
Cloud Levels
  • Broken at 2,500' AGL

Apr-23@
13:00 UTC

Apr-23 @ 13:00 UTC

Apr-24@
00:00 UTC

Apr-24 @ 00:00 UTC

FM231300 35010KT P6SM SCT040

From

From Standard forecast or significant change

Wind
  • 350° at 10 KTS
Cloud Levels
  • Scattered at 4,000' AGL